Terminal Aerodrome Forecast
Issued by NWS Central Illinois

Home | Current Version | Previous Version | Text Only | Print | Product List | Glossary On
Versions: 1 2 3 4 5 6 7 8 9 10 11 12 13 14 15 16 17 18 19
437
FTUS43 KILX 100538
TAFPIA
TAF
KPIA 100538Z 1006/1106 26005KT P6SM OVC080
     FM101500 17004KT P6SM OVC045
     FM102100 14006KT P6SM OVC035 PROB30 1021/1103 4SM -SN OVC025
     FM110400 14010KT P6SM OVC050=

USA.gov is the U.S. government's official web portal to all federal, state and local government web resources and services.